Time;durP1;ratioP1;P1;durP2;ratioP2;P2;SDS_P1;SDS_P2;PMS_P1;PMS_P2;Temp;Humidity;BMP_temperature;BMP_pressure;BME280_temperature;BME280_humidity;BME280_pressure;Samples;Min_cycle;Max_cycle;Signal;HPM_P1;HPM_P2
2021/01/03 00:02:03;;;;;;;14.48;10.70;;;21.00;33.60;;;;;;5071737;28;20410;-71
2021/01/03 00:04:29;;;;;;;14.03;10.03;;;21.00;33.70;;;;;;5074262;28;20875;-69
2021/01/03 00:06:55;;;;;;;13.88;10.50;;;21.00;34.00;;;;;;5074597;28;20469;-69
2021/01/03 00:09:22;;;;;;;13.13;10.35;;;21.00;33.90;;;;;;5073377;28;20733;-68
2021/01/03 00:11:48;;;;;;;13.40;9.87;;;21.00;33.90;;;;;;5072636;28;20478;-69
2021/01/03 00:14:14;;;;;;;13.10;10.02;;;21.00;34.00;;;;;;5072600;28;20406;-69
2021/01/03 00:16:44;;;;;;;13.03;10.07;;;21.00;33.80;;;;;;5072556;28;20384;-69
2021/01/03 00:19:09;;;;;;;13.40;10.10;;;20.90;33.50;;;;;;5072497;28;20388;-69
2021/01/03 00:21:35;;;;;;;12.60;9.83;;;21.00;33.20;;;;;;5065614;28;20720;-69
2021/01/03 00:24:00;;;;;;;12.80;10.00;;;21.00;33.00;;;;;;5071818;28;20449;-69
2021/01/03 00:26:26;;;;;;;13.60;9.67;;;21.00;33.00;;;;;;5072253;28;20747;-69
2021/01/03 00:28:52;;;;;;;14.80;10.52;;;20.90;33.00;;;;;;5072344;28;20912;-69
2021/01/03 00:31:17;;;;;;;12.87;9.53;;;20.90;33.10;;;;;;5072154;28;20943;-69
2021/01/03 00:33:43;;;;;;;12.15;9.35;;;20.90;33.10;;;;;;5071762;28;20395;-69
2021/01/03 00:36:11;;;;;;;11.40;9.40;;;20.90;33.00;;;;;;5072288;28;21175;-69
2021/01/03 00:38:37;;;;;;;11.52;8.90;;;20.90;33.00;;;;;;5068818;28;20430;-69
2021/01/03 00:41:04;;;;;;;10.77;8.82;;;20.90;32.90;;;;;;5069431;28;20383;-69
2021/01/03 00:43:29;;;;;;;11.75;8.68;;;20.80;32.80;;;;;;5071413;28;20483;-69
2021/01/03 00:45:55;;;;;;;11.73;9.03;;;20.90;32.80;;;;;;5071974;28;20463;-69
2021/01/03 00:48:21;;;;;;;11.23;8.82;;;20.90;32.90;;;;;;5071787;28;20392;-69
2021/01/03 00:50:46;;;;;;;11.50;9.30;;;20.80;32.70;;;;;;5071552;28;20409;-69
2021/01/03 00:53:12;;;;;;;10.65;8.50;;;20.80;32.70;;;;;;5071649;28;20427;-69
2021/01/03 00:55:37;;;;;;;11.55;8.90;;;20.80;32.60;;;;;;5069911;28;20403;-69
2021/01/03 00:58:03;;;;;;;10.73;8.50;;;20.80;32.60;;;;;;5071846;28;20410;-69
2021/01/03 01:00:32;;;;;;;10.27;8.07;;;20.80;32.60;;;;;;5071649;28;20395;-69
2021/01/03 01:03:01;;;;;;;10.70;8.02;;;20.80;32.50;;;;;;5070929;28;20402;-69
2021/01/03 01:05:27;;;;;;;10.43;8.32;;;20.80;32.50;;;;;;5070785;28;20388;-69
2021/01/03 01:07:53;;;;;;;10.32;8.38;;;20.80;32.50;;;;;;5071229;28;20872;-69
2021/01/03 01:10:22;;;;;;;9.70;8.02;;;20.80;32.40;;;;;;5070055;28;20436;-69
2021/01/03 01:12:53;;;;;;;9.85;7.90;;;20.80;32.40;;;;;;5071366;28;20921;-69
2021/01/03 01:15:21;;;;;;;9.77;8.23;;;20.80;32.30;;;;;;5069941;28;20970;-69
2021/01/03 01:17:53;;;;;;;9.70;8.38;;;20.70;32.30;;;;;;5069602;28;20809;-69
2021/01/03 01:20:22;;;;;;;9.73;8.02;;;20.70;32.30;;;;;;5069918;28;20764;-69
2021/01/03 01:22:47;;;;;;;9.82;7.75;;;20.70;32.20;;;;;;5071131;28;20775;-70
2021/01/03 01:25:14;;;;;;;9.65;7.90;;;20.70;32.20;;;;;;5069808;28;20396;-69
2021/01/03 01:27:40;;;;;;;9.43;7.70;;;20.70;32.20;;;;;;5070624;28;20380;-70
2021/01/03 01:30:08;;;;;;;9.17;7.60;;;20.70;32.30;;;;;;5071098;28;20479;-69
2021/01/03 01:32:34;;;;;;;8.95;7.60;;;20.60;32.20;;;;;;5070485;28;20424;-69
2021/01/03 01:35:00;;;;;;;8.85;7.70;;;20.70;32.30;;;;;;5069483;28;20380;-69
2021/01/03 01:37:26;;;;;;;8.73;7.57;;;20.70;32.30;;;;;;5069222;28;20395;-69
2021/01/03 01:39:52;;;;;;;8.32;7.43;;;20.60;32.20;;;;;;5069230;28;20400;-69
2021/01/03 01:42:18;;;;;;;8.60;7.57;;;20.60;32.20;;;;;;5069394;28;20442;-70
2021/01/03 01:44:44;;;;;;;8.82;7.30;;;20.60;32.10;;;;;;5068121;28;20386;-71
2021/01/03 01:47:24;;;;;;;8.65;7.40;;;20.70;32.10;;;;;;5069347;28;20392;-70
2021/01/03 01:49:52;;;;;;;9.50;7.00;;;20.60;32.10;;;;;;5069849;28;20384;-69
2021/01/03 01:52:20;;;;;;;8.27;6.97;;;20.60;32.10;;;;;;5070292;28;20514;-69
2021/01/03 01:54:53;;;;;;;7.97;6.68;;;20.60;32.10;;;;;;5070527;28;20387;-69
2021/01/03 01:57:48;;;;;;;8.48;7.18;;;20.60;32.00;;;;;;5070489;28;20384;-69
2021/01/03 02:00:24;;;;;;;8.50;6.88;;;20.60;32.00;;;;;;5069022;28;20430;-69
2021/01/03 02:02:59;;;;;;;8.70;7.20;;;20.60;32.10;;;;;;5068244;28;20637;-69
2021/01/03 02:05:35;;;;;;;8.07;6.88;;;20.60;31.90;;;;;;5066481;28;20752;-69
2021/01/03 02:08:34;;;;;;;7.35;6.50;;;20.60;32.00;;;;;;5069164;28;20473;-69
2021/01/03 02:11:02;;;;;;;8.23;6.80;;;20.60;31.90;;;;;;5066278;28;20419;-69
2021/01/03 02:13:33;;;;;;;8.13;6.80;;;20.50;31.90;;;;;;5069067;28;20469;-69
2021/01/03 02:16:04;;;;;;;7.95;6.70;;;20.50;31.90;;;;;;5070269;28;20440;-69
2021/01/03 02:18:29;;;;;;;6.78;5.90;;;20.50;31.90;;;;;;5070466;28;20805;-69
2021/01/03 02:21:02;;;;;;;7.85;6.88;;;20.50;31.90;;;;;;5068405;28;20395;-69
2021/01/03 02:23:50;;;;;;;8.15;6.45;;;20.50;32.00;;;;;;5066663;28;20392;-69
2021/01/03 02:26:20;;;;;;;7.87;6.50;;;20.50;31.90;;;;;;5048193;28;20543;-69
2021/01/03 02:28:47;;;;;;;8.18;6.50;;;20.50;31.90;;;;;;5063970;28;20400;-69
2021/01/03 02:31:15;;;;;;;7.80;6.65;;;20.50;31.90;;;;;;5069083;28;20899;-69
2021/01/03 02:33:45;;;;;;;6.93;6.05;;;20.50;31.80;;;;;;5069773;28;20461;-69
2021/01/03 02:36:31;;;;;;;7.30;6.00;;;20.50;31.80;;;;;;5069764;28;20388;-69
2021/01/03 02:39:22;;;;;;;8.35;6.90;;;20.50;31.80;;;;;;5071265;28;20399;-69
2021/01/03 02:41:52;;;;;;;7.10;6.15;;;20.50;31.80;;;;;;5069562;28;20416;-69
2021/01/03 02:44:17;;;;;;;7.20;6.28;;;20.50;31.80;;;;;;5070021;28;20395;-69
2021/01/03 02:46:43;;;;;;;7.32;6.30;;;20.50;31.70;;;;;;5071076;28;20441;-68
2021/01/03 02:49:09;;;;;;;7.28;6.10;;;20.50;31.80;;;;;;5071001;28;20482;-69
2021/01/03 02:51:38;;;;;;;7.40;6.53;;;20.40;31.70;;;;;;5070913;28;20494;-69
2021/01/03 02:54:06;;;;;;;7.15;6.28;;;20.40;31.70;;;;;;5069924;28;20423;-69
2021/01/03 02:56:31;;;;;;;6.75;5.95;;;20.50;31.70;;;;;;5071166;28;20752;-69
2021/01/03 02:58:57;;;;;;;6.55;5.90;;;20.40;31.70;;;;;;5069754;28;20392;-69
2021/01/03 03:01:23;;;;;;;6.93;5.97;;;20.40;31.70;;;;;;5069884;28;20470;-69
2021/01/03 03:03:49;;;;;;;6.85;6.03;;;20.40;31.70;;;;;;5069587;28;20392;-69
2021/01/03 03:06:14;;;;;;;7.13;6.00;;;20.40;31.70;;;;;;5069281;28;20397;-69
2021/01/03 03:08:40;;;;;;;7.13;5.93;;;20.40;31.70;;;;;;5070757;28;20410;-69
2021/01/03 03:11:06;;;;;;;7.40;6.30;;;20.40;31.80;;;;;;5070948;28;20384;-69
2021/01/03 03:13:32;;;;;;;7.13;6.05;;;20.40;31.70;;;;;;5069474;28;20418;-69
2021/01/03 03:15:58;;;;;;;6.93;6.10;;;20.40;31.60;;;;;;5073374;28;20427;-69
2021/01/03 03:18:23;;;;;;;7.90;6.40;;;20.40;31.60;;;;;;5074690;28;20398;-69
2021/01/03 03:20:49;;;;;;;7.05;5.88;;;20.40;31.60;;;;;;5073508;28;20392;-69
2021/01/03 03:23:15;;;;;;;7.00;6.17;;;20.40;31.60;;;;;;5074176;28;20391;-69
2021/01/03 03:25:40;;;;;;;7.25;6.25;;;20.40;31.60;;;;;;5072893;28;20391;-69
2021/01/03 03:28:06;;;;;;;6.87;6.00;;;20.30;31.60;;;;;;5074578;28;20388;-69
2021/01/03 03:30:32;;;;;;;6.70;5.97;;;20.40;31.60;;;;;;5074592;28;20388;-69
2021/01/03 03:32:58;;;;;;;7.10;5.78;;;20.30;31.50;;;;;;5074419;28;20419;-69
2021/01/03 03:35:30;;;;;;;6.97;6.20;;;20.30;31.50;;;;;;5074528;28;20380;-69
2021/01/03 03:37:57;;;;;;;7.68;5.97;;;20.30;31.50;;;;;;5074047;28;20396;-69
2021/01/03 03:40:23;;;;;;;6.82;5.63;;;20.30;31.60;;;;;;5073118;28;20399;-69
2021/01/03 03:42:50;;;;;;;7.53;6.07;;;20.30;31.50;;;;;;5074264;28;20559;-69
2021/01/03 03:45:15;;;;;;;6.45;5.47;;;20.30;31.50;;;;;;5073065;28;20919;-69
2021/01/03 03:47:41;;;;;;;6.72;6.00;;;20.30;31.60;;;;;;5072539;28;20415;-69
2021/01/03 03:50:11;;;;;;;7.17;5.80;;;20.30;31.60;;;;;;5072949;28;20420;-69
2021/01/03 03:52:37;;;;;;;6.75;5.85;;;20.30;31.60;;;;;;5072893;28;20422;-69
2021/01/03 03:55:03;;;;;;;7.10;5.80;;;20.30;31.50;;;;;;5072886;28;20388;-68
2021/01/03 03:57:29;;;;;;;7.37;5.93;;;20.30;31.60;;;;;;5074229;28;20472;-69
2021/01/03 03:59:55;;;;;;;7.70;6.17;;;20.20;31.50;;;;;;5072363;28;20479;-69
2021/01/03 04:02:20;;;;;;;7.07;5.87;;;20.30;31.60;;;;;;5072781;28;20759;-69
2021/01/03 04:04:46;;;;;;;6.43;5.72;;;20.30;31.50;;;;;;5073963;28;20384;-69
2021/01/03 04:07:12;;;;;;;6.95;5.85;;;20.30;31.50;;;;;;5073744;28;20465;-68
2021/01/03 04:09:37;;;;;;;6.90;6.00;;;20.30;31.40;;;;;;5072437;28;20978;-69
2021/01/03 04:12:03;;;;;;;7.18;6.30;;;20.30;31.40;;;;;;5073584;28;20507;-69
2021/01/03 04:14:29;;;;;;;7.38;6.03;;;20.30;31.50;;;;;;5073791;28;20368;-68
2021/01/03 04:16:57;;;;;;;6.67;5.80;;;20.30;31.50;;;;;;5073805;28;20824;-68
2021/01/03 04:19:24;;;;;;;6.95;5.75;;;20.20;31.30;;;;;;5073744;28;20384;-69
2021/01/03 04:21:56;;;;;;;7.28;5.90;;;20.20;31.30;;;;;;5071924;28;20388;-69
2021/01/03 04:24:22;;;;;;;7.28;6.25;;;20.20;31.40;;;;;;5073510;28;20414;-69
2021/01/03 04:26:50;;;;;;;7.53;5.70;;;20.20;31.40;;;;;;5071958;28;20395;-70
2021/01/03 04:29:16;;;;;;;6.97;5.63;;;20.20;31.40;;;;;;5072172;28;20455;-69
2021/01/03 04:31:42;;;;;;;6.75;5.88;;;20.20;31.40;;;;;;5071538;28;20416;-69
2021/01/03 04:34:08;;;;;;;6.50;5.68;;;20.20;31.40;;;;;;5073224;28;20403;-69
2021/01/03 04:36:34;;;;;;;6.80;6.07;;;20.20;31.40;;;;;;5072104;28;20392;-69
2021/01/03 04:38:59;;;;;;;6.57;5.57;;;20.20;31.40;;;;;;5073446;28;20395;-69
2021/01/03 04:41:29;;;;;;;6.80;5.90;;;20.20;31.40;;;;;;5072078;28;20406;-69
2021/01/03 04:44:00;;;;;;;6.85;5.63;;;20.20;31.40;;;;;;5072844;28;20876;-69
2021/01/03 04:46:29;;;;;;;6.68;5.53;;;20.20;31.40;;;;;;5072107;28;20391;-69
2021/01/03 04:49:02;;;;;;;6.43;5.75;;;20.20;31.40;;;;;;5071883;28;20399;-69
2021/01/03 04:51:36;;;;;;;6.95;5.95;;;20.10;31.30;;;;;;5071708;28;20410;-69
2021/01/03 04:54:13;;;;;;;7.07;5.70;;;20.20;31.40;;;;;;5072763;28;20903;-69
2021/01/03 04:56:42;;;;;;;6.53;5.78;;;20.20;31.40;;;;;;5071566;28;20384;-69
2021/01/03 04:59:16;;;;;;;7.18;6.10;;;20.20;31.40;;;;;;5071689;28;20388;-69
2021/01/03 05:01:53;;;;;;;6.72;5.53;;;20.10;31.30;;;;;;5071214;28;20388;-69
2021/01/03 05:04:40;;;;;;;6.65;5.63;;;20.20;31.40;;;;;;5071586;28;20423;-69
2021/01/03 05:07:10;;;;;;;6.35;5.70;;;20.20;31.40;;;;;;5072818;28;20391;-69
2021/01/03 05:09:36;;;;;;;6.63;5.30;;;20.10;31.30;;;;;;5072808;28;20422;-69
2021/01/03 05:12:20;;;;;;;6.85;5.97;;;20.10;31.30;;;;;;5072319;28;20458;-69
2021/01/03 05:14:52;;;;;;;6.40;5.70;;;20.10;31.30;;;;;;5071413;28;20379;-69
2021/01/03 05:17:18;;;;;;;6.40;5.70;;;20.10;31.30;;;;;;5071448;28;20445;-69
2021/01/03 05:19:43;;;;;;;6.80;5.53;;;20.10;31.30;;;;;;5070844;28;20396;-69
2021/01/03 05:22:26;;;;;;;7.07;5.83;;;20.10;31.40;;;;;;5071194;28;20799;-69
2021/01/03 05:24:55;;;;;;;6.60;5.60;;;20.10;31.40;;;;;;5072453;28;20383;-69
2021/01/03 05:27:20;;;;;;;7.93;6.10;;;20.10;31.40;;;;;;5070935;28;20388;-69
2021/01/03 05:29:46;;;;;;;6.60;5.60;;;20.10;31.40;;;;;;5070552;28;20891;-69
2021/01/03 05:32:25;;;;;;;7.40;6.00;;;20.10;31.40;;;;;;5070755;28;20411;-69
2021/01/03 05:34:50;;;;;;;6.75;5.63;;;20.10;31.30;;;;;;5072276;28;20388;-69
2021/01/03 05:37:20;;;;;;;7.45;5.95;;;20.10;31.90;;;;;;5071480;28;20390;-69
2021/01/03 05:39:47;;;;;;;7.38;6.15;;;20.10;31.20;;;;;;5071795;28;20396;-69
2021/01/03 05:42:18;;;;;;;7.30;5.95;;;20.00;31.20;;;;;;5072069;28;20391;-69
2021/01/03 05:45:09;;;;;;;7.30;5.72;;;20.10;31.20;;;;;;5072089;28;20384;-69
2021/01/03 05:47:58;;;;;;;7.03;5.97;;;20.00;31.20;;;;;;5072026;28;20380;-68
2021/01/03 05:50:24;;;;;;;6.93;5.93;;;20.00;31.20;;;;;;5071938;28;20412;-69
2021/01/03 05:52:49;;;;;;;7.13;6.13;;;20.00;31.20;;;;;;5071916;28;20466;-69
2021/01/03 05:55:23;;;;;;;7.22;6.15;;;20.00;31.20;;;;;;5071893;28;20380;-69
2021/01/03 05:58:01;;;;;;;7.03;5.78;;;20.00;31.20;;;;;;5071602;28;20384;-69
2021/01/03 06:00:27;;;;;;;7.20;6.07;;;20.00;31.20;;;;;;5070598;28;20935;-68
2021/01/03 06:02:53;;;;;;;7.30;6.17;;;20.00;31.20;;;;;;5070601;28;20563;-68
2021/01/03 06:05:24;;;;;;;7.03;5.80;;;20.00;31.20;;;;;;5071762;28;20391;-69
2021/01/03 06:08:32;;;;;;;6.55;5.45;;;20.00;31.20;;;;;;5069993;28;20472;-69
2021/01/03 06:11:15;;;;;;;7.00;6.05;;;20.00;31.80;;;;;;5070308;28;20408;-69
2021/01/03 06:13:53;;;;;;;7.00;5.90;;;20.00;31.20;;;;;;5071305;28;20834;-69
2021/01/03 06:16:28;;;;;;;7.35;6.25;;;20.00;31.20;;;;;;5071655;28;20445;-69
2021/01/03 06:19:42;;;;;;;7.28;6.15;;;20.00;31.20;;;;;;5071706;28;20375;-69
2021/01/03 06:22:39;;;;;;;7.18;5.97;;;20.00;31.20;;;;;;5066460;28;20891;-69
2021/01/03 06:25:30;;;;;;;6.70;6.00;;;20.00;31.20;;;;;;5071107;28;20396;-69
2021/01/03 06:28:06;;;;;;;7.00;5.70;;;20.00;31.10;;;;;;5071083;28;20499;-69
2021/01/03 06:30:33;;;;;;;7.78;6.20;;;20.00;31.10;;;;;;5070436;28;20923;-69
2021/01/03 06:33:14;;;;;;;7.13;5.70;;;20.00;31.10;;;;;;5069945;28;20459;-69
2021/01/03 06:35:46;;;;;;;6.85;6.10;;;20.00;31.10;;;;;;5071408;28;20387;-69
2021/01/03 06:38:34;;;;;;;7.53;6.30;;;20.00;31.10;;;;;;5071093;28;20836;-69
2021/01/03 06:41:34;;;;;;;7.53;6.40;;;20.00;31.20;;;;;;5069656;28;20457;-68
2021/01/03 06:44:24;;;;;;;7.20;6.30;;;20.00;31.10;;;;;;5069522;28;20892;-69
2021/01/03 06:47:27;;;;;;;7.23;6.33;;;19.90;31.10;;;;;;5071322;28;20921;-69
2021/01/03 06:50:01;;;;;;;7.63;6.20;;;19.90;31.10;;;;;;5073482;28;20396;-69
2021/01/03 06:52:51;;;;;;;7.28;6.18;;;19.90;31.10;;;;;;5074011;28;20415;-68
2021/01/03 06:55:46;;;;;;;7.25;6.35;;;19.90;31.10;;;;;;5074046;28;20453;-69
2021/01/03 06:58:33;;;;;;;7.68;6.47;;;19.90;31.10;;;;;;5074638;28;20399;-68
2021/01/03 07:01:08;;;;;;;7.50;6.20;;;19.90;31.10;;;;;;5073932;28;20944;-69
2021/01/03 07:03:34;;;;;;;7.43;6.40;;;19.90;31.10;;;;;;5077040;28;20460;-69
2021/01/03 07:06:04;;;;;;;7.80;6.30;;;19.90;31.10;;;;;;5073012;28;20558;-69
2021/01/03 07:08:51;;;;;;;7.40;6.60;;;19.90;31.10;;;;;;5061467;28;20476;-68
2021/01/03 07:11:40;;;;;;;7.67;6.53;;;19.90;31.10;;;;;;5083928;28;20399;-69
2021/01/03 07:14:10;;;;;;;8.15;6.60;;;19.90;31.10;;;;;;5073208;28;20403;-69
2021/01/03 07:17:15;;;;;;;7.28;6.30;;;19.90;31.10;;;;;;5074954;28;20462;-69
2021/01/03 07:19:51;;;;;;;7.60;6.60;;;19.90;31.10;;;;;;5053612;28;20756;-69
2021/01/03 07:22:39;;;;;;;7.05;6.22;;;19.90;31.10;;;;;;5073478;28;20774;-69
2021/01/03 07:25:24;;;;;;;8.27;6.90;;;19.90;31.10;;;;;;5074563;28;20391;-68
2021/01/03 07:28:15;;;;;;;7.68;6.40;;;19.90;31.10;;;;;;5072656;28;20479;-69
2021/01/03 07:31:13;;;;;;;7.35;5.97;;;19.90;31.10;;;;;;5073446;28;20411;-69
2021/01/03 07:34:02;;;;;;;7.80;6.63;;;19.90;31.20;;;;;;5072693;28;20888;-69
2021/01/03 07:36:43;;;;;;;7.22;6.43;;;19.90;31.10;;;;;;5074587;28;20375;-69
2021/01/03 07:39:14;;;;;;;7.70;6.50;;;19.80;31.10;;;;;;5074362;28;20937;-69
2021/01/03 07:41:41;;;;;;;7.75;6.50;;;19.90;31.10;;;;;;5072985;28;20478;-68
2021/01/03 07:44:09;;;;;;;7.45;6.35;;;19.90;31.10;;;;;;5072560;28;20389;-69
2021/01/03 07:46:57;;;;;;;7.93;6.82;;;19.90;31.10;;;;;;5078397;28;20385;-69
2021/01/03 07:49:26;;;;;;;7.68;6.60;;;19.80;31.00;;;;;;5074890;28;20431;-69
2021/01/03 07:51:52;;;;;;;8.13;6.78;;;19.80;31.20;;;;;;5074545;28;20419;-68
2021/01/03 07:54:18;;;;;;;8.52;6.90;;;19.80;31.60;;;;;;5090883;28;20387;-69
2021/01/03 07:56:43;;;;;;;9.60;7.27;;;19.80;31.50;;;;;;5078473;28;20386;-69
2021/01/03 07:59:09;;;;;;;9.40;7.15;;;19.70;31.60;;;;;;5019336;28;20425;-68
2021/01/03 08:01:42;;;;;;;10.38;8.00;;;19.80;32.20;;;;;;5050726;28;20381;-69
2021/01/03 08:04:17;;;;;;;9.60;7.43;;;19.80;31.60;;;;;;5035545;28;20407;-69
2021/01/03 08:06:43;;;;;;;10.95;7.45;;;19.60;31.00;;;;;;5052705;28;20389;-69
2021/01/03 08:09:08;;;;;;;10.97;7.67;;;19.60;31.50;;;;;;5053849;28;20488;-69
2021/01/03 08:11:40;;;;;;;10.23;7.60;;;19.60;31.60;;;;;;5052489;28;20385;-69
2021/01/03 08:14:27;;;;;;;9.97;7.27;;;19.60;31.70;;;;;;5052058;28;20890;-69
2021/01/03 08:17:01;;;;;;;9.82;7.40;;;19.60;32.00;;;;;;5052278;28;20382;-68
2021/01/03 08:19:28;;;;;;;10.10;7.47;;;19.50;31.80;;;;;;5052480;28;20397;-69
2021/01/03 08:21:58;;;;;;;11.63;7.60;;;19.50;32.30;;;;;;5053253;28;20472;-69
2021/01/03 08:24:26;;;;;;;10.43;7.38;;;19.50;32.00;;;;;;5052420;28;20402;-68
2021/01/03 08:26:58;;;;;;;11.02;7.72;;;19.50;32.00;;;;;;5052303;28;20394;-69
2021/01/03 08:29:44;;;;;;;9.77;7.72;;;19.50;32.00;;;;;;5053558;28;20439;-69
2021/01/03 08:32:20;;;;;;;10.15;7.60;;;19.50;32.00;;;;;;5051415;28;20493;-69
2021/01/03 08:34:46;;;;;;;11.17;7.47;;;19.50;32.10;;;;;;5052124;28;20397;-68
2021/01/03 08:37:18;;;;;;;9.98;7.38;;;19.50;32.30;;;;;;5053123;28;20395;-68
2021/01/03 08:39:44;;;;;;;9.93;7.55;;;19.40;32.20;;;;;;5053368;28;20385;-68
2021/01/03 08:42:18;;;;;;;9.07;7.40;;;19.40;32.10;;;;;;5051202;28;20436;-69
2021/01/03 08:44:50;;;;;;;9.90;7.55;;;19.40;32.20;;;;;;5052009;28;20401;-68
2021/01/03 08:47:25;;;;;;;8.30;7.15;;;19.30;32.40;;;;;;5053137;28;20390;-69
2021/01/03 08:50:09;;;;;;;9.48;7.43;;;19.40;32.30;;;;;;5052927;28;20385;-68
2021/01/03 08:52:35;;;;;;;9.43;7.00;;;19.30;32.40;;;;;;5052999;28;20413;-68
2021/01/03 08:55:12;;;;;;;8.60;7.20;;;19.30;32.50;;;;;;5053015;28;20393;-68
2021/01/03 08:57:40;;;;;;;10.55;7.30;;;19.30;32.50;;;;;;5051772;28;20796;-69
2021/01/03 09:00:09;;;;;;;9.23;7.50;;;19.30;32.60;;;;;;5052845;28;20446;-69
2021/01/03 09:02:35;;;;;;;11.48;7.40;;;19.30;32.60;;;;;;5051899;28;20730;-69
2021/01/03 09:05:03;;;;;;;10.20;7.43;;;19.40;33.20;;;;;;5052684;28;20396;-69
2021/01/03 09:07:34;;;;;;;9.20;7.43;;;19.40;33.10;;;;;;5052769;28;20390;-69
2021/01/03 09:10:01;;;;;;;12.75;7.32;;;19.30;32.90;;;;;;5052353;28;20882;-69
2021/01/03 09:12:44;;;;;;;9.73;7.50;;;19.30;32.80;;;;;;5050277;28;20432;-68
2021/01/03 09:15:23;;;;;;;10.05;7.30;;;19.30;32.90;;;;;;5052680;28;20385;-68
2021/01/03 09:18:15;;;;;;;11.23;7.40;;;19.30;33.00;;;;;;5052426;28;20467;-69
2021/01/03 09:20:45;;;;;;;8.57;7.18;;;19.30;33.00;;;;;;5052510;28;20405;-68
2021/01/03 09:23:18;;;;;;;10.90;7.55;;;19.20;33.00;;;;;;5052395;28;20389;-68
2021/01/03 09:25:54;;;;;;;8.90;7.20;;;19.20;33.20;;;;;;5052292;28;20386;-69
2021/01/03 09:28:27;;;;;;;9.00;7.15;;;19.20;33.10;;;;;;5051132;28;20745;-69
2021/01/03 09:31:15;;;;;;;10.45;7.32;;;19.20;33.20;;;;;;5051016;28;20393;-69
2021/01/03 09:33:46;;;;;;;9.25;7.20;;;19.20;33.20;;;;;;5052198;28;20622;-69
2021/01/03 09:36:34;;;;;;;10.20;7.30;;;19.10;33.20;;;;;;5050419;28;20801;-69
2021/01/03 09:39:18;;;;;;;9.90;7.25;;;19.20;33.40;;;;;;5050874;28;20424;-69
2021/01/03 09:42:22;;;;;;;9.48;7.20;;;19.20;33.20;;;;;;5050917;28;20385;-69
2021/01/03 09:44:58;;;;;;;8.98;7.30;;;19.30;33.50;;;;;;5051588;28;20397;-69
2021/01/03 09:47:39;;;;;;;10.65;7.20;;;19.30;33.40;;;;;;5050756;28;21221;-68
2021/01/03 09:50:27;;;;;;;9.40;7.20;;;19.40;34.10;;;;;;5051527;28;20417;-69
2021/01/03 09:53:14;;;;;;;9.70;7.40;;;19.50;35.50;;;;;;5032415;28;20468;-68
2021/01/03 09:56:14;;;;;;;9.00;7.37;;;19.50;35.40;;;;;;5031715;28;20936;-68
2021/01/03 09:58:45;;;;;;;13.02;7.07;;;19.50;35.30;;;;;;5031965;28;20387;-69
2021/01/03 10:01:33;;;;;;;10.02;7.18;;;19.50;35.00;;;;;;5031896;28;20884;-69
2021/01/03 10:04:40;;;;;;;11.30;7.10;;;19.60;35.10;;;;;;5031467;28;20418;-69
2021/01/03 10:07:14;;;;;;;10.38;7.28;;;19.60;35.60;;;;;;5011265;28;20743;-70
2021/01/03 10:09:40;;;;;;;9.07;6.88;;;19.70;36.30;;;;;;5031822;28;20395;-69
2021/01/03 10:12:19;;;;;;;10.57;6.95;;;19.70;35.70;;;;;;5031046;28;20430;-69
2021/01/03 10:14:44;;;;;;;10.35;6.95;;;19.70;35.40;;;;;;5031720;28;20390;-69
2021/01/03 10:17:21;;;;;;;8.38;6.80;;;19.60;35.80;;;;;;5031592;28;20395;-69
2021/01/03 10:19:47;;;;;;;8.97;6.77;;;19.60;36.30;;;;;;5031572;28;20435;-69
2021/01/03 10:22:29;;;;;;;8.77;6.47;;;19.60;35.40;;;;;;5031143;28;20481;-69
2021/01/03 10:25:00;;;;;;;8.10;6.40;;;19.60;35.20;;;;;;5031574;28;20445;-69
2021/01/03 10:27:25;;;;;;;9.30;6.47;;;19.60;35.20;;;;;;5031630;28;20426;-70
2021/01/03 10:29:51;;;;;;;9.00;6.47;;;19.60;34.60;;;;;;5031510;28;20867;-69
2021/01/03 10:32:17;;;;;;;9.00;6.53;;;19.50;35.00;;;;;;5030978;28;20522;-69
2021/01/03 10:34:44;;;;;;;9.20;6.93;;;19.60;35.30;;;;;;5029529;28;21312;-69
2021/01/03 10:37:09;;;;;;;8.85;7.05;;;19.50;35.20;;;;;;5029902;28;20390;-69
2021/01/03 10:39:35;;;;;;;8.67;6.97;;;19.50;35.10;;;;;;5029920;28;20879;-69
2021/01/03 10:42:05;;;;;;;9.55;7.03;;;19.50;34.80;;;;;;5030946;28;20387;-69
2021/01/03 10:44:32;;;;;;;8.57;6.97;;;19.60;34.40;;;;;;5031188;28;20399;-69
2021/01/03 10:46:57;;;;;;;8.35;6.78;;;19.60;34.40;;;;;;5030149;28;20391;-69
2021/01/03 10:49:24;;;;;;;8.02;6.57;;;19.60;34.50;;;;;;5030060;28;20465;-69
2021/01/03 10:51:50;;;;;;;8.90;7.18;;;19.60;34.30;;;;;;5029917;28;20387;-69
2021/01/03 10:54:25;;;;;;;8.73;6.70;;;19.60;34.20;;;;;;5029537;28;20490;-69
2021/01/03 10:56:56;;;;;;;7.88;6.55;;;19.50;34.30;;;;;;5031164;28;20403;-69
2021/01/03 10:59:23;;;;;;;9.00;6.70;;;19.60;34.10;;;;;;5029936;28;20406;-69
2021/01/03 11:01:49;;;;;;;8.13;6.45;;;19.60;34.00;;;;;;5031247;28;20437;-69
2021/01/03 11:04:20;;;;;;;7.97;6.60;;;19.60;33.90;;;;;;5029166;28;20391;-69
2021/01/03 11:06:49;;;;;;;9.13;6.70;;;19.60;33.70;;;;;;5030987;28;20942;-69
2021/01/03 11:09:36;;;;;;;8.63;6.60;;;19.60;33.70;;;;;;5029870;28;20801;-69
2021/01/03 11:12:09;;;;;;;9.15;6.72;;;19.60;33.60;;;;;;5030288;28;20890;-69
2021/01/03 11:14:35;;;;;;;8.07;6.60;;;19.60;33.40;;;;;;5031380;28;20403;-69
2021/01/03 11:17:04;;;;;;;9.45;7.25;;;19.60;33.70;;;;;;5029513;28;20395;-69
2021/01/03 11:19:30;;;;;;;9.85;7.30;;;19.60;33.70;;;;;;5031080;28;20399;-69
2021/01/03 11:21:58;;;;;;;13.00;8.63;;;19.60;33.60;;;;;;5030823;28;20728;-69
2021/01/03 11:24:24;;;;;;;12.77;8.40;;;19.60;33.70;;;;;;5030825;28;20391;-69
2021/01/03 11:26:50;;;;;;;11.82;8.00;;;19.60;33.60;;;;;;5029790;28;20407;-69
2021/01/03 11:29:20;;;;;;;10.57;7.82;;;19.60;33.50;;;;;;5029683;28;20483;-69
2021/01/03 11:31:48;;;;;;;10.13;7.28;;;19.60;33.40;;;;;;5030727;28;20407;-69
2021/01/03 11:34:21;;;;;;;10.20;7.40;;;19.60;33.40;;;;;;5030370;28;20403;-69
2021/01/03 11:36:52;;;;;;;9.65;7.40;;;19.60;33.40;;;;;;5032809;28;20395;-69
2021/01/03 11:39:19;;;;;;;10.50;7.55;;;19.60;33.40;;;;;;5034409;28;20917;-69
2021/01/03 11:41:47;;;;;;;8.73;6.70;;;19.70;33.30;;;;;;5033286;28;20395;-69
2021/01/03 11:44:13;;;;;;;9.40;7.20;;;19.60;33.20;;;;;;5034054;28;20395;-69
2021/01/03 11:46:38;;;;;;;9.13;7.00;;;19.60;33.20;;;;;;5034418;28;20387;-69
2021/01/03 11:49:05;;;;;;;9.52;7.00;;;19.70;33.20;;;;;;5034282;28;20457;-69
2021/01/03 11:51:30;;;;;;;8.57;7.30;;;19.70;33.10;;;;;;5034300;28;20395;-69
2021/01/03 11:53:56;;;;;;;8.53;7.13;;;19.70;33.10;;;;;;5034043;28;20430;-69
2021/01/03 11:56:23;;;;;;;8.25;6.85;;;19.70;33.00;;;;;;5033948;28;20383;-69
2021/01/03 11:58:49;;;;;;;9.40;7.07;;;19.70;33.00;;;;;;5032906;28;20391;-69
2021/01/03 12:01:20;;;;;;;10.10;7.38;;;19.70;32.40;;;;;;5033983;28;20452;-69
2021/01/03 12:03:47;;;;;;;10.10;7.38;;;19.70;32.90;;;;;;5033353;28;20387;-68
2021/01/03 12:06:19;;;;;;;11.98;7.57;;;19.70;32.90;;;;;;5028090;28;20900;-69
2021/01/03 12:08:45;;;;;;;11.35;7.70;;;19.70;33.20;;;;;;5031557;28;20879;-69
2021/01/03 12:11:24;;;;;;;10.23;7.53;;;19.70;33.70;;;;;;5032570;28;20541;-68
2021/01/03 12:13:59;;;;;;;10.35;7.45;;;19.70;33.30;;;;;;5031602;28;20418;-68
2021/01/03 12:16:29;;;;;;;11.85;7.47;;;19.70;33.20;;;;;;5030749;28;20387;-68
2021/01/03 12:18:55;;;;;;;11.60;7.65;;;19.70;33.20;;;;;;5032493;28;20486;-69
2021/01/03 12:21:24;;;;;;;11.02;7.60;;;19.70;33.00;;;;;;5032558;28;20823;-68
2021/01/03 12:23:50;;;;;;;10.60;7.57;;;19.70;33.00;;;;;;5032726;28;20466;-68
2021/01/03 12:26:16;;;;;;;9.88;7.53;;;19.70;33.00;;;;;;5031915;28;20391;-69
2021/01/03 12:28:42;;;;;;;9.70;7.28;;;19.80;32.90;;;;;;5029223;28;20432;-68
2021/01/03 12:31:07;;;;;;;10.15;7.68;;;19.80;32.90;;;;;;5032256;28;20427;-68
2021/01/03 12:33:33;;;;;;;10.50;7.70;;;19.80;32.80;;;;;;5030496;28;20415;-68
2021/01/03 12:35:59;;;;;;;10.73;7.70;;;19.80;32.80;;;;;;5032145;28;20395;-68
2021/01/03 12:38:24;;;;;;;8.20;7.10;;;19.80;32.80;;;;;;5031822;28;20779;-68
2021/01/03 12:40:50;;;;;;;10.07;7.87;;;19.80;32.80;;;;;;5032343;28;20470;-68
2021/01/03 12:43:16;;;;;;;10.30;8.15;;;19.80;32.60;;;;;;5032124;28;20397;-68
2021/01/03 12:45:42;;;;;;;10.47;8.13;;;19.80;32.80;;;;;;5031741;28;20494;-68
2021/01/03 12:48:08;;;;;;;10.52;7.95;;;19.80;32.70;;;;;;5031452;28;20883;-68
2021/01/03 12:50:33;;;;;;;9.32;7.72;;;19.80;32.60;;;;;;5031887;28;20478;-69
2021/01/03 12:52:59;;;;;;;9.80;8.00;;;19.80;32.50;;;;;;5032001;28;20530;-68
2021/01/03 12:55:25;;;;;;;9.47;7.63;;;19.80;32.50;;;;;;5031747;28;20391;-68
2021/01/03 12:57:50;;;;;;;9.43;7.63;;;19.80;32.60;;;;;;5032190;28;20431;-71
2021/01/03 13:00:16;;;;;;;9.68;7.80;;;19.80;32.40;;;;;;5031236;28;20401;-71
2021/01/03 13:02:42;;;;;;;12.25;7.90;;;19.80;33.00;;;;;;5032056;28;20470;-71
2021/01/03 13:05:08;;;;;;;13.32;8.85;;;19.80;33.70;;;;;;5031953;28;20902;-69
2021/01/03 13:07:34;;;;;;;13.13;8.30;;;20.00;34.70;;;;;;5031291;28;20871;-68